Time;durP1;ratioP1;P1;durP2;ratioP2;P2;SDS_P1;SDS_P2;PMS_P1;PMS_P2;Temp;Humidity;BMP_temperature;BMP_pressure;BME280_temperature;BME280_humidity;BME280_pressure;Samples;Min_cycle;Max_cycle;Signal;HPM_P1;HPM_P2
2024/03/11 00:01:44;;;;;;;2.40;2.20;;;9.20;99.90;;;;;;5093872;28;20206;-72
2024/03/11 00:04:15;;;;;;;2.03;1.93;;;9.40;99.90;;;;;;5093283;28;20417;-72
2024/03/11 00:06:44;;;;;;;2.23;1.93;;;9.50;99.90;;;;;;5093435;28;20792;-72
2024/03/11 00:09:19;;;;;;;3.10;2.80;;;9.40;99.90;;;;;;5092296;28;20415;-72
2024/03/11 00:11:48;;;;;;;2.30;2.10;;;9.50;99.90;;;;;;5094372;28;20474;-72
2024/03/11 00:14:21;;;;;;;2.33;2.13;;;9.30;99.90;;;;;;5093971;28;20770;-72
2024/03/11 00:16:46;;;;;;;2.40;2.20;;;9.40;99.90;;;;;;5093588;28;20796;-72
2024/03/11 00:19:12;;;;;;;2.87;2.67;;;9.40;99.90;;;;;;5093669;28;20407;-72
2024/03/11 00:21:38;;;;;;;1.70;1.60;;;9.30;99.90;;;;;;5093587;28;20613;-72
2024/03/11 00:24:03;;;;;;;2.60;2.40;;;9.20;99.90;;;;;;5093263;28;20539;-73
2024/03/11 00:26:29;;;;;;;2.80;2.60;;;9.40;99.90;;;;;;5093137;28;20194;-73
2024/03/11 00:28:55;;;;;;;2.37;2.20;;;9.40;99.90;;;;;;5093253;28;20174;-72
2024/03/11 00:31:25;;;;;;;3.70;2.40;;;9.50;99.90;;;;;;5093509;28;20489;-72
2024/03/11 00:33:50;;;;;;;2.27;2.07;;;9.40;99.90;;;;;;5093403;28;20750;-72
2024/03/11 00:36:17;;;;;;;2.23;2.03;;;9.40;99.90;;;;;;5093106;28;20493;-72
2024/03/11 00:38:43;;;;;;;2.80;2.60;;;9.30;99.90;;;;;;5093444;28;20532;-72
2024/03/11 00:41:09;;;;;;;2.17;2.00;;;9.30;99.90;;;;;;5093337;28;20411;-72
2024/03/11 00:43:35;;;;;;;2.57;2.37;;;9.40;99.90;;;;;;5093236;28;20456;-72
2024/03/11 00:46:01;;;;;;;2.90;2.60;;;9.60;99.90;;;;;;5093464;28;20162;-72
2024/03/11 00:48:27;;;;;;;2.50;2.30;;;9.60;99.90;;;;;;5093039;28;20888;-72
2024/03/11 00:50:53;;;;;;;2.40;2.23;;;9.50;99.90;;;;;;5093227;28;20405;-72
2024/03/11 00:53:20;;;;;;;2.90;2.70;;;9.50;99.90;;;;;;5092996;28;20420;-72
2024/03/11 00:55:46;;;;;;;2.67;2.47;;;9.50;99.90;;;;;;5097431;28;20414;-72
2024/03/11 00:58:13;;;;;;;2.53;2.33;;;9.50;99.90;;;;;;5097095;28;20430;-73
2024/03/11 01:00:39;;;;;;;2.80;2.60;;;9.70;99.90;;;;;;5097410;28;20413;-72
2024/03/11 01:03:06;;;;;;;2.20;2.00;;;9.50;99.90;;;;;;5097063;28;20490;-73
2024/03/11 01:05:32;;;;;;;2.40;2.20;;;9.60;99.90;;;;;;5097142;28;20399;-72
2024/03/11 01:07:58;;;;;;;2.80;2.50;;;9.50;99.90;;;;;;5097132;28;20447;-73
2024/03/11 01:10:23;;;;;;;3.27;2.40;;;9.40;99.90;;;;;;5096967;28;20907;-72
2024/03/11 01:12:49;;;;;;;2.67;2.47;;;9.60;99.90;;;;;;5097018;28;20171;-73
2024/03/11 01:15:15;;;;;;;2.60;2.40;;;9.60;99.90;;;;;;5095724;28;20182;-72
2024/03/11 01:17:41;;;;;;;2.43;2.23;;;9.50;99.90;;;;;;5096826;28;20439;-73
2024/03/11 01:20:10;;;;;;;2.40;2.20;;;9.40;99.90;;;;;;5096888;28;20269;-73
2024/03/11 01:22:36;;;;;;;3.33;2.57;;;9.10;99.90;;;;;;5096953;28;20198;-72
2024/03/11 01:25:05;;;;;;;2.60;2.40;;;9.20;99.90;;;;;;5097606;28;20529;-72
2024/03/11 01:27:32;;;;;;;2.70;2.47;;;9.10;99.90;;;;;;5096880;28;20447;-73
2024/03/11 01:29:58;;;;;;;2.60;2.40;;;9.40;99.90;;;;;;5096825;28;20411;-72
2024/03/11 01:32:24;;;;;;;2.03;1.83;;;9.40;99.90;;;;;;5096827;28;20408;-72
2024/03/11 01:34:50;;;;;;;2.10;1.90;;;9.20;99.90;;;;;;5096804;28;20180;-72
2024/03/11 01:37:15;;;;;;;1.90;1.80;;;9.20;99.90;;;;;;5119356;22;20233;-73
2024/03/11 01:39:44;;;;;;;3.73;2.20;;;9.10;99.90;;;;;;5095801;28;20189;-73
2024/03/11 01:42:14;;;;;;;3.70;2.27;;;9.30;99.90;;;;;;5095540;28;20205;-73
2024/03/11 01:44:45;;;;;;;2.33;1.90;;;9.20;99.90;;;;;;5077194;28;20448;-73
2024/03/11 01:47:15;;;;;;;2.00;1.90;;;9.00;99.90;;;;;;5095340;28;20416;-73
2024/03/11 01:49:45;;;;;;;2.07;1.97;;;9.00;99.90;;;;;;5095501;28;20738;-73
2024/03/11 01:52:16;;;;;;;2.17;2.03;;;9.00;99.90;;;;;;5094887;28;20414;-73
2024/03/11 01:54:42;;;;;;;1.87;1.77;;;9.00;99.90;;;;;;5095816;28;20523;-73
2024/03/11 01:57:10;;;;;;;3.00;1.77;;;9.00;99.90;;;;;;5076972;28;20966;-73
2024/03/11 01:59:37;;;;;;;2.33;2.13;;;9.00;99.90;;;;;;5095413;28;20408;-73
2024/03/11 02:02:07;;;;;;;1.97;1.87;;;8.90;99.90;;;;;;5095293;28;20443;-72
2024/03/11 02:04:34;;;;;;;2.20;2.00;;;8.90;99.90;;;;;;5094783;28;20408;-73
2024/03/11 02:06:59;;;;;;;2.13;1.97;;;8.90;99.90;;;;;;5093654;28;20966;-72
2024/03/11 02:09:25;;;;;;;3.50;2.30;;;8.90;99.90;;;;;;5095490;28;20407;-73
2024/03/11 02:11:51;;;;;;;4.00;2.10;;;8.80;99.90;;;;;;5077265;28;20178;-72
2024/03/11 02:14:16;;;;;;;1.37;1.27;;;8.80;99.90;;;;;;5076760;28;20193;-74
2024/03/11 02:16:42;;;;;;;1.57;1.47;;;8.90;99.90;;;;;;5094887;28;20196;-73
2024/03/11 02:19:12;;;;;;;1.50;1.40;;;9.00;99.90;;;;;;5095231;28;20186;-73
2024/03/11 02:21:47;;;;;;;1.67;1.57;;;8.80;99.90;;;;;;5094838;28;20181;-72
2024/03/11 02:24:16;;;;;;;1.83;1.73;;;8.80;99.90;;;;;;5094839;28;20403;-72
2024/03/11 02:26:45;;;;;;;1.77;1.67;;;8.90;99.90;;;;;;5094641;28;20423;-72
2024/03/11 02:29:11;;;;;;;1.50;1.40;;;9.00;99.90;;;;;;5076662;28;20403;-72
2024/03/11 02:31:37;;;;;;;1.50;1.40;;;8.90;99.90;;;;;;5094866;28;20403;-72
2024/03/11 02:34:03;;;;;;;1.90;1.67;;;8.80;99.90;;;;;;5094702;28;20409;-72
2024/03/11 02:36:28;;;;;;;1.60;1.50;;;8.70;99.90;;;;;;5094812;28;20174;-74
2024/03/11 02:38:54;;;;;;;1.53;1.43;;;8.70;99.90;;;;;;5094542;28;20176;-73
2024/03/11 02:41:20;;;;;;;1.90;1.40;;;8.70;99.90;;;;;;5094667;28;20527;-72
2024/03/11 02:43:45;;;;;;;1.60;1.50;;;8.70;99.90;;;;;;5094443;28;20166;-73
2024/03/11 02:46:11;;;;;;;1.80;1.70;;;8.70;99.90;;;;;;5095058;28;20169;-73
2024/03/11 02:48:37;;;;;;;1.67;1.57;;;8.60;99.90;;;;;;5080267;28;20189;-73
2024/03/11 02:51:03;;;;;;;1.67;1.50;;;8.60;99.90;;;;;;5094694;28;20636;-73
2024/03/11 02:53:30;;;;;;;2.00;1.50;;;8.50;99.90;;;;;;5094519;28;20407;-73
2024/03/11 02:55:56;;;;;;;1.50;1.40;;;8.40;99.90;;;;;;5094937;28;20399;-73
2024/03/11 02:58:22;;;;;;;2.30;1.87;;;8.30;99.90;;;;;;5094480;28;20422;-73
2024/03/11 03:00:48;;;;;;;1.30;1.20;;;8.20;99.90;;;;;;5094445;28;20413;-73
2024/03/11 03:03:14;;;;;;;1.60;1.50;;;8.10;99.90;;;;;;5092923;28;20448;-73
2024/03/11 03:05:41;;;;;;;1.60;1.47;;;8.20;99.90;;;;;;5094424;28;20534;-73
2024/03/11 03:08:06;;;;;;;1.97;1.80;;;8.10;99.90;;;;;;5094247;28;20427;-73
2024/03/11 03:10:33;;;;;;;1.70;1.60;;;8.10;99.90;;;;;;5094042;28;20924;-73
2024/03/11 03:12:58;;;;;;;3.43;1.70;;;8.10;99.90;;;;;;5094066;28;20518;-73
2024/03/11 03:15:24;;;;;;;1.93;1.50;;;8.10;99.90;;;;;;5075989;28;20447;-73
2024/03/11 03:17:50;;;;;;;1.93;1.63;;;8.10;99.90;;;;;;5093870;28;20275;-73
2024/03/11 03:20:18;;;;;;;2.63;1.70;;;8.00;99.90;;;;;;5092526;28;20166;-73
2024/03/11 03:22:44;;;;;;;1.57;1.47;;;8.00;99.90;;;;;;5092276;28;20198;-73
2024/03/11 03:25:09;;;;;;;2.73;1.60;;;8.00;99.90;;;;;;5092668;28;20408;-73
2024/03/11 03:27:35;;;;;;;1.93;1.80;;;8.00;99.90;;;;;;5093527;28;20953;-73
2024/03/11 03:30:01;;;;;;;1.70;1.60;;;7.90;99.90;;;;;;5093737;28;20199;-73
2024/03/11 03:32:27;;;;;;;2.20;1.50;;;7.90;99.90;;;;;;5093542;28;20276;-73
2024/03/11 03:34:53;;;;;;;1.50;1.40;;;7.90;99.90;;;;;;5075471;28;20174;-73
2024/03/11 03:37:18;;;;;;;1.53;1.27;;;8.00;99.90;;;;;;5093139;28;20803;-73
2024/03/11 03:39:44;;;;;;;1.20;1.10;;;7.90;99.90;;;;;;5092892;28;20241;-73
2024/03/11 03:42:10;;;;;;;1.50;1.40;;;7.80;99.90;;;;;;5093247;28;20709;-73
2024/03/11 03:44:36;;;;;;;1.40;1.30;;;7.90;99.90;;;;;;5093339;28;20176;-73
2024/03/11 03:47:02;;;;;;;1.33;1.23;;;7.80;99.90;;;;;;5093191;28;20178;-73
2024/03/11 03:49:27;;;;;;;1.43;1.27;;;7.80;99.90;;;;;;5093329;28;20399;-73
2024/03/11 03:51:53;;;;;;;1.47;1.37;;;7.90;99.90;;;;;;5093793;28;20532;-73
2024/03/11 03:54:19;;;;;;;2.43;1.50;;;7.80;99.90;;;;;;5092961;28;20526;-73
2024/03/11 03:56:45;;;;;;;1.37;1.27;;;7.70;99.90;;;;;;5093198;28;20181;-72
2024/03/11 03:59:11;;;;;;;1.47;1.37;;;7.70;99.90;;;;;;5092774;28;20464;-73
2024/03/11 04:01:36;;;;;;;1.40;1.17;;;7.70;99.90;;;;;;5093183;28;20258;-72
2024/03/11 04:04:02;;;;;;;1.80;1.63;;;7.70;99.90;;;;;;5093326;28;20169;-73
2024/03/11 04:06:27;;;;;;;2.50;1.40;;;7.60;99.90;;;;;;5093070;28;20219;-72
2024/03/11 04:08:53;;;;;;;2.57;1.47;;;7.70;99.90;;;;;;5093293;28;20174;-72
2024/03/11 04:11:19;;;;;;;1.77;1.67;;;7.70;99.90;;;;;;5092921;28;20562;-72
2024/03/11 04:13:45;;;;;;;1.70;1.60;;;7.70;99.90;;;;;;5092995;28;20195;-72
2024/03/11 04:16:11;;;;;;;2.40;1.50;;;7.60;99.90;;;;;;5092921;28;20402;-72
2024/03/11 04:18:37;;;;;;;2.03;1.83;;;7.60;99.90;;;;;;5092653;28;20195;-73
2024/03/11 04:21:05;;;;;;;2.13;1.50;;;7.60;99.90;;;;;;5092862;28;20486;-73
2024/03/11 04:23:32;;;;;;;1.37;1.27;;;7.60;99.90;;;;;;5093322;28;20185;-74
2024/03/11 04:26:00;;;;;;;2.20;2.00;;;7.50;99.90;;;;;;5091575;28;20522;-74
2024/03/11 04:28:28;;;;;;;1.67;1.57;;;7.50;99.90;;;;;;5091661;28;20423;-72
2024/03/11 04:30:55;;;;;;;2.77;1.87;;;7.50;99.90;;;;;;5074501;28;20506;-73
2024/03/11 04:33:21;;;;;;;1.70;1.60;;;7.40;99.90;;;;;;5093176;28;20410;-73
2024/03/11 04:35:49;;;;;;;2.50;1.50;;;7.40;99.90;;;;;;5092585;28;20883;-72
2024/03/11 04:38:15;;;;;;;2.47;1.90;;;7.30;99.90;;;;;;5092217;28;20849;-72
2024/03/11 04:40:47;;;;;;;2.50;2.30;;;7.20;99.90;;;;;;5092357;28;20409;-73
2024/03/11 04:43:17;;;;;;;1.70;1.60;;;7.10;99.90;;;;;;5092761;28;20430;-73
2024/03/11 04:45:42;;;;;;;2.53;1.80;;;7.20;99.90;;;;;;5092199;28;20381;-72
2024/03/11 04:48:09;;;;;;;2.27;2.07;;;7.20;99.90;;;;;;5092148;28;20451;-72
2024/03/11 04:50:37;;;;;;;2.30;2.10;;;7.10;99.90;;;;;;5092425;28;20171;-72
2024/03/11 04:53:05;;;;;;;3.80;2.20;;;7.00;99.90;;;;;;5092417;28;20404;-73
2024/03/11 04:55:31;;;;;;;2.27;2.00;;;6.90;99.90;;;;;;5092385;28;20411;-71
2024/03/11 04:57:58;;;;;;;1.90;1.70;;;6.90;99.90;;;;;;5092095;28;20507;-73
2024/03/11 05:00:27;;;;;;;2.30;1.63;;;6.90;99.90;;;;;;5092162;28;20492;-73
2024/03/11 05:02:57;;;;;;;2.00;1.90;;;7.00;99.90;;;;;;5092188;28;21004;-73
2024/03/11 05:05:24;;;;;;;2.13;1.93;;;6.90;99.90;;;;;;5091025;28;20560;-73
2024/03/11 05:07:50;;;;;;;1.93;1.80;;;7.00;99.90;;;;;;5086746;28;20448;-72
2024/03/11 05:10:16;;;;;;;1.90;1.70;;;7.00;99.90;;;;;;5074141;28;20402;-71
2024/03/11 05:12:43;;;;;;;2.83;2.33;;;7.00;99.90;;;;;;5092291;28;20168;-73
2024/03/11 05:15:13;;;;;;;3.10;1.80;;;7.00;99.90;;;;;;5092287;28;20448;-73
2024/03/11 05:17:39;;;;;;;2.03;1.70;;;7.00;99.90;;;;;;5076165;28;20462;-73
2024/03/11 05:20:12;;;;;;;1.70;1.43;;;7.10;99.90;;;;;;5091890;28;20416;-73
2024/03/11 05:22:41;;;;;;;1.70;1.60;;;7.20;99.90;;;;;;5092231;28;20437;-73
2024/03/11 05:25:08;;;;;;;2.90;1.73;;;7.20;99.90;;;;;;5091436;28;20418;-73
2024/03/11 05:27:34;;;;;;;2.37;1.50;;;7.10;99.90;;;;;;5073862;28;20434;-73
2024/03/11 05:30:00;;;;;;;2.80;1.83;;;7.00;99.90;;;;;;5092135;28;20416;-73
2024/03/11 05:32:25;;;;;;;2.00;1.80;;;7.00;99.90;;;;;;5092460;28;20415;-74
2024/03/11 05:34:51;;;;;;;2.37;1.70;;;7.10;99.90;;;;;;5091749;28;20260;-73
2024/03/11 05:37:18;;;;;;;1.97;1.47;;;7.10;99.90;;;;;;5092377;28;20624;-74
2024/03/11 05:39:44;;;;;;;2.10;1.50;;;7.30;99.90;;;;;;5094574;28;20163;-72
2024/03/11 05:42:09;;;;;;;1.70;1.60;;;7.20;99.90;;;;;;5096844;28;20449;-74
2024/03/11 05:44:35;;;;;;;2.10;1.57;;;7.20;99.90;;;;;;5095931;28;20184;-73
2024/03/11 05:47:01;;;;;;;1.77;1.67;;;7.20;99.90;;;;;;5095947;28;20188;-74
2024/03/11 05:49:28;;;;;;;2.20;2.00;;;7.20;99.90;;;;;;5077834;28;20194;-73
2024/03/11 05:51:57;;;;;;;2.00;1.90;;;7.20;99.90;;;;;;5096279;28;20434;-73
2024/03/11 05:54:24;;;;;;;1.40;1.30;;;7.30;99.90;;;;;;5077867;28;20493;-73
2024/03/11 05:56:59;;;;;;;1.67;1.40;;;7.20;99.90;;;;;;5095643;28;20430;-71
2024/03/11 05:59:25;;;;;;;2.57;1.40;;;7.10;99.90;;;;;;5078066;28;20410;-73
2024/03/11 06:01:52;;;;;;;2.00;1.70;;;7.10;99.90;;;;;;5095866;28;20449;-73
2024/03/11 06:04:18;;;;;;;1.80;1.70;;;7.20;99.90;;;;;;5078075;28;20448;-74
2024/03/11 06:06:48;;;;;;;2.70;1.53;;;7.20;99.90;;;;;;5077162;28;20961;-73
2024/03/11 06:09:15;;;;;;;2.30;1.90;;;7.10;99.90;;;;;;5095485;28;20437;-75
2024/03/11 06:11:44;;;;;;;1.50;1.40;;;7.00;99.90;;;;;;5095450;28;20402;-73
2024/03/11 06:14:12;;;;;;;1.60;1.50;;;7.10;99.90;;;;;;5095144;28;20412;-73
2024/03/11 06:16:42;;;;;;;2.10;1.50;;;7.10;99.90;;;;;;5094821;28;21011;-73
2024/03/11 06:19:12;;;;;;;1.80;1.57;;;7.20;99.90;;;;;;5095322;28;20454;-73
2024/03/11 06:21:42;;;;;;;2.13;1.90;;;7.00;99.90;;;;;;5095741;28;20506;-73
2024/03/11 06:24:08;;;;;;;2.10;1.90;;;7.00;99.90;;;;;;5094983;28;20439;-73
2024/03/11 06:26:35;;;;;;;1.80;1.70;;;7.00;99.90;;;;;;5095171;28;20409;-74
2024/03/11 06:29:02;;;;;;;1.97;1.77;;;7.00;99.90;;;;;;5095459;28;20163;-73
2024/03/11 06:31:29;;;;;;;1.70;1.60;;;6.90;99.90;;;;;;5095099;28;20479;-73
2024/03/11 06:33:55;;;;;;;2.20;1.83;;;6.90;99.90;;;;;;5079472;28;20413;-74
2024/03/11 06:36:21;;;;;;;2.10;1.90;;;7.00;99.90;;;;;;5099215;28;20528;-73
2024/03/11 06:38:48;;;;;;;1.60;1.50;;;7.20;99.90;;;;;;5094877;28;20409;-73
2024/03/11 06:41:19;;;;;;;2.77;1.70;;;7.20;99.90;;;;;;5094941;28;20426;-73
2024/03/11 06:43:45;;;;;;;1.90;1.80;;;7.30;99.90;;;;;;5076288;28;20449;-73
2024/03/11 06:46:15;;;;;;;4.07;1.70;;;7.30;99.90;;;;;;5094737;28;20397;-72
2024/03/11 06:48:41;;;;;;;1.50;1.40;;;7.50;99.90;;;;;;5095154;28;20513;-72
2024/03/11 06:51:11;;;;;;;2.43;1.70;;;7.50;99.90;;;;;;5092513;28;20498;-73
2024/03/11 06:53:37;;;;;;;3.50;1.70;;;7.60;99.90;;;;;;5094518;28;20172;-72
2024/03/11 06:56:07;;;;;;;1.77;1.67;;;7.70;99.90;;;;;;5094536;28;20408;-73
2024/03/11 06:58:33;;;;;;;5.07;1.40;;;7.80;99.90;;;;;;5076043;28;20909;-73
2024/03/11 07:00:58;;;;;;;3.03;1.10;;;7.80;99.90;;;;;;5076347;28;20409;-73
2024/03/11 07:03:30;;;;;;;2.13;1.40;;;7.80;99.90;;;;;;5094982;28;20450;-73
2024/03/11 07:05:59;;;;;;;2.40;1.53;;;7.90;99.90;;;;;;5094445;28;20172;-73
2024/03/11 07:08:27;;;;;;;1.70;1.40;;;8.00;99.90;;;;;;5092873;28;20462;-72
2024/03/11 07:10:55;;;;;;;2.40;1.43;;;8.10;99.90;;;;;;5094201;28;20489;-72
2024/03/11 07:13:20;;;;;;;1.90;1.30;;;8.20;99.90;;;;;;5094514;28;20440;-72
2024/03/11 07:15:47;;;;;;;1.60;1.40;;;8.30;99.90;;;;;;5094517;28;20419;-73
2024/03/11 07:18:16;;;;;;;2.00;1.13;;;8.40;99.90;;;;;;5094779;28;20242;-72
2024/03/11 07:20:43;;;;;;;1.30;1.10;;;8.40;99.90;;;;;;5093979;28;20403;-73
2024/03/11 07:23:09;;;;;;;1.83;1.10;;;8.50;99.90;;;;;;5094035;28;20450;-72
2024/03/11 07:25:35;;;;;;;1.10;1.00;;;8.60;99.90;;;;;;5093113;28;20432;-73
2024/03/11 07:28:01;;;;;;;2.00;1.40;;;8.70;99.90;;;;;;5093644;28;20426;-72
2024/03/11 07:30:29;;;;;;;1.70;1.10;;;8.80;99.90;;;;;;5093764;28;20161;-72
2024/03/11 07:33:14;;;;;;;1.40;0.93;;;8.70;99.90;;;;;;5093714;28;20761;-73
2024/03/11 07:35:43;;;;;;;1.40;1.13;;;8.70;99.90;;;;;;5086778;28;20908;-73
2024/03/11 07:38:09;;;;;;;3.13;1.03;;;8.90;99.90;;;;;;5109431;22;21037;-71
2024/03/11 07:40:36;;;;;;;1.10;1.00;;;9.00;99.90;;;;;;5094326;28;20490;-73
2024/03/11 07:43:03;;;;;;;1.17;1.00;;;9.00;99.90;;;;;;5093648;28;20790;-71
2024/03/11 07:45:29;;;;;;;1.63;1.00;;;9.00;99.90;;;;;;5093935;28;20777;-70
2024/03/11 07:47:55;;;;;;;2.57;0.90;;;9.00;99.90;;;;;;5093899;28;20426;-73
2024/03/11 07:50:24;;;;;;;1.43;1.07;;;9.00;99.90;;;;;;5093914;28;20392;-72
2024/03/11 07:52:50;;;;;;;1.97;1.30;;;9.20;99.90;;;;;;5093922;28;20172;-72
2024/03/11 07:55:17;;;;;;;1.30;1.03;;;9.20;99.90;;;;;;5094001;28;20412;-73
2024/03/11 07:57:45;;;;;;;2.13;1.03;;;9.20;99.90;;;;;;5093874;28;20417;-72
2024/03/11 08:00:17;;;;;;;2.53;1.43;;;9.20;99.90;;;;;;5093754;28;20410;-74
2024/03/11 08:02:43;;;;;;;1.60;1.07;;;9.20;99.90;;;;;;5093642;28;20523;-70
2024/03/11 08:05:13;;;;;;;1.50;0.80;;;9.30;99.90;;;;;;5093202;28;20947;-74
2024/03/11 08:07:40;;;;;;;2.27;0.90;;;9.30;99.90;;;;;;5093742;28;20766;-74
2024/03/11 08:10:09;;;;;;;1.77;1.00;;;9.40;99.90;;;;;;5093007;28;20407;-74
2024/03/11 08:12:35;;;;;;;3.73;0.97;;;9.50;99.90;;;;;;5093799;28;20416;-74
2024/03/11 08:15:04;;;;;;;2.20;1.10;;;9.60;99.90;;;;;;5093939;28;20456;-73
2024/03/11 08:17:30;;;;;;;1.33;1.10;;;9.60;99.90;;;;;;5093386;28;20978;-73
2024/03/11 08:19:55;;;;;;;1.20;1.10;;;9.70;99.90;;;;;;5093781;28;20404;-73
2024/03/11 08:22:21;;;;;;;1.77;1.20;;;9.70;99.90;;;;;;5093181;28;20236;-73
2024/03/11 08:24:47;;;;;;;0.90;0.80;;;9.90;99.90;;;;;;5093211;28;20213;-73
2024/03/11 08:27:15;;;;;;;2.03;0.90;;;9.90;99.90;;;;;;5093506;28;20233;-73
2024/03/11 08:29:41;;;;;;;1.00;0.90;;;10.10;99.90;;;;;;5093537;28;20801;-73
2024/03/11 08:32:07;;;;;;;1.67;0.97;;;10.20;99.90;;;;;;5093819;28;20525;-73
2024/03/11 08:34:35;;;;;;;0.80;0.70;;;10.30;99.90;;;;;;5093448;28;20406;-73
2024/03/11 08:37:03;;;;;;;0.90;0.77;;;10.50;99.90;;;;;;5092784;28;20561;-74
2024/03/11 08:39:30;;;;;;;1.77;1.00;;;10.40;99.90;;;;;;5093616;28;20878;-73
2024/03/11 08:41:57;;;;;;;1.30;0.87;;;10.60;99.90;;;;;;5093349;28;20442;-74
2024/03/11 08:44:23;;;;;;;1.33;0.90;;;10.50;99.90;;;;;;5095058;28;20415;-74
2024/03/11 08:46:48;;;;;;;1.27;0.80;;;10.50;99.90;;;;;;5094027;28;20415;-72
2024/03/11 08:49:15;;;;;;;3.47;0.90;;;10.70;99.90;;;;;;5093250;28;20255;-74
2024/03/11 08:51:40;;;;;;;2.40;1.00;;;10.70;99.90;;;;;;5093636;28;20189;-74
2024/03/11 08:54:07;;;;;;;1.10;0.90;;;10.80;99.90;;;;;;5093666;28;20432;-73
2024/03/11 08:56:32;;;;;;;0.80;0.60;;;10.90;99.90;;;;;;5093214;28;20169;-74
2024/03/11 08:58:58;;;;;;;1.30;1.00;;;11.00;99.90;;;;;;5095571;28;20433;-71
2024/03/11 09:01:24;;;;;;;1.97;0.90;;;11.10;99.90;;;;;;5093152;28;20165;-73
2024/03/11 09:03:49;;;;;;;1.37;1.07;;;11.20;99.90;;;;;;5092902;28;20234;-70
2024/03/11 09:06:16;;;;;;;1.10;0.83;;;11.30;99.90;;;;;;5092980;28;20169;-72
2024/03/11 09:08:44;;;;;;;1.00;0.60;;;11.20;99.90;;;;;;5092883;28;20568;-70
2024/03/11 09:11:10;;;;;;;0.87;0.80;;;11.10;99.90;;;;;;5092892;28;20925;-70
2024/03/11 09:13:36;;;;;;;1.00;0.70;;;11.20;99.90;;;;;;5093103;28;20504;-71
2024/03/11 09:16:02;;;;;;;1.63;0.90;;;11.40;99.90;;;;;;5095686;28;20616;-70
2024/03/11 09:18:27;;;;;;;1.60;0.90;;;11.50;99.90;;;;;;5097116;28;20185;-70
2024/03/11 09:20:53;;;;;;;3.30;1.23;;;11.50;99.90;;;;;;5096932;28;20664;-70
2024/03/11 09:23:19;;;;;;;1.40;0.90;;;11.50;99.90;;;;;;5096590;28;20217;-70
2024/03/11 09:25:44;;;;;;;1.70;0.70;;;11.30;99.90;;;;;;5096872;28;20617;-71
2024/03/11 09:28:10;;;;;;;1.20;0.80;;;11.40;99.90;;;;;;5096936;28;20632;-70
2024/03/11 09:30:36;;;;;;;3.03;1.10;;;11.50;99.90;;;;;;5096918;28;20164;-70
2024/03/11 09:33:02;;;;;;;1.90;1.10;;;11.80;99.90;;;;;;5096465;28;20573;-70
2024/03/11 09:35:28;;;;;;;1.07;0.83;;;11.90;99.90;;;;;;5096480;28;20162;-71
2024/03/11 09:37:54;;;;;;;1.37;0.70;;;11.80;99.90;;;;;;5096272;28;20471;-70
2024/03/11 09:40:23;;;;;;;1.90;1.00;;;12.00;99.90;;;;;;5078273;28;20411;-72
2024/03/11 09:42:50;;;;;;;1.63;0.70;;;12.10;99.90;;;;;;5096518;28;20822;-71
2024/03/11 09:45:18;;;;;;;1.33;0.90;;;12.20;99.90;;;;;;5096055;28;20403;-71
2024/03/11 09:47:57;;;;;;;0.90;0.60;;;12.40;99.90;;;;;;5076064;28;21021;-71
2024/03/11 09:50:26;;;;;;;1.70;0.70;;;12.30;99.90;;;;;;5076176;28;20574;-71
2024/03/11 09:52:57;;;;;;;0.70;0.50;;;12.30;99.90;;;;;;5075915;28;20451;-70
2024/03/11 09:55:24;;;;;;;1.50;0.93;;;12.30;99.90;;;;;;5080493;28;20391;-71
2024/03/11 09:57:51;;;;;;;2.30;0.83;;;12.40;99.90;;;;;;5078154;28;20430;-71
2024/03/11 10:00:23;;;;;;;3.57;0.97;;;12.50;99.90;;;;;;5095743;28;20453;-71
2024/03/11 10:02:54;;;;;;;1.20;0.70;;;12.60;99.90;;;;;;5096424;28;20557;-70
2024/03/11 10:05:22;;;;;;;0.87;0.73;;;12.30;99.90;;;;;;5096232;28;20390;-72
2024/03/11 10:07:49;;;;;;;1.47;0.90;;;12.30;99.90;;;;;;5095462;28;20511;-72
2024/03/11 10:10:16;;;;;;;1.00;0.83;;;12.30;99.90;;;;;;5096088;28;20408;-72
2024/03/11 10:12:53;;;;;;;2.20;0.87;;;12.50;99.90;;;;;;5096001;28;20400;-72
2024/03/11 10:15:27;;;;;;;1.30;0.90;;;12.60;99.90;;;;;;5096361;28;20540;-72
2024/03/11 10:17:54;;;;;;;1.13;0.80;;;12.70;99.90;;;;;;5095811;28;20558;-72
2024/03/11 10:20:21;;;;;;;1.60;0.80;;;12.80;99.90;;;;;;5095653;28;20411;-71
2024/03/11 10:22:47;;;;;;;0.80;0.60;;;12.80;99.90;;;;;;5096025;28;20913;-70
2024/03/11 10:25:16;;;;;;;1.77;0.80;;;12.70;99.90;;;;;;5095567;28;20400;-71
2024/03/11 10:27:43;;;;;;;1.20;1.00;;;12.80;99.90;;;;;;5094171;28;20458;-70
2024/03/11 10:30:27;;;;;;;1.10;0.80;;;12.90;99.90;;;;;;5095878;28;20406;-70
2024/03/11 10:32:55;;;;;;;1.90;0.73;;;13.30;99.90;;;;;;5095787;28;20395;-70
2024/03/11 10:35:21;;;;;;;2.07;0.77;;;13.20;99.90;;;;;;5095275;28;20937;-70
2024/03/11 10:37:50;;;;;;;1.80;0.83;;;13.30;99.90;;;;;;5095091;28;21007;-70
2024/03/11 10:40:20;;;;;;;1.53;0.80;;;13.10;99.90;;;;;;5095271;28;20424;-71
2024/03/11 10:42:53;;;;;;;1.00;0.90;;;13.20;99.90;;;;;;5095540;28;20441;-70
2024/03/11 10:45:33;;;;;;;3.30;1.00;;;13.30;99.90;;;;;;5095308;28;20413;-71
2024/03/11 10:48:00;;;;;;;3.03;1.30;;;13.30;99.90;;;;;;5094291;28;20496;-69
2024/03/11 10:50:28;;;;;;;2.60;0.80;;;13.30;99.90;;;;;;5095358;28;20401;-70
2024/03/11 10:52:57;;;;;;;1.60;0.87;;;13.50;99.90;;;;;;5093823;28;20444;-71
2024/03/11 10:55:26;;;;;;;1.00;0.90;;;13.70;99.90;;;;;;5095167;28;20420;-71
2024/03/11 10:57:54;;;;;;;1.97;0.70;;;13.60;99.90;;;;;;5095015;28;20512;-71
2024/03/11 11:00:21;;;;;;;1.20;0.70;;;13.60;99.90;;;;;;5094986;28;20908;-71
2024/03/11 11:02:53;;;;;;;2.13;0.90;;;13.90;99.90;;;;;;5095049;28;21053;-71
2024/03/11 11:05:24;;;;;;;0.90;0.70;;;13.80;99.90;;;;;;5078416;28;20425;-70
2024/03/11 11:07:53;;;;;;;3.33;1.00;;;14.00;99.90;;;;;;5095160;28;20423;-70
2024/03/11 11:10:20;;;;;;;1.43;0.90;;;13.90;99.90;;;;;;5095032;28;20401;-71
2024/03/11 11:12:52;;;;;;;1.20;0.73;;;13.90;99.90;;;;;;5094770;28;20464;-71
2024/03/11 11:15:20;;;;;;;1.20;0.80;;;14.10;99.90;;;;;;5093342;28;20425;-73
2024/03/11 11:17:48;;;;;;;2.00;0.83;;;14.60;99.90;;;;;;5094837;28;20433;-71
2024/03/11 11:20:29;;;;;;;1.23;0.80;;;14.70;99.70;;;;;;5094760;28;20468;-73
2024/03/11 11:23:00;;;;;;;1.20;0.80;;;14.90;98.90;;;;;;5095453;28;20562;-71
2024/03/11 11:25:42;;;;;;;1.20;0.90;;;15.90;97.60;;;;;;5094531;28;20443;-71
2024/03/11 11:28:28;;;;;;;0.90;0.70;;;16.80;95.40;;;;;;5094761;28;20562;-71
2024/03/11 11:31:14;;;;;;;1.47;0.87;;;18.60;95.00;;;;;;5095026;28;21088;-71
2024/03/11 11:33:58;;;;;;;1.13;0.83;;;19.80;89.00;;;;;;5094569;28;20392;-71
2024/03/11 11:36:30;;;;;;;1.00;0.73;;;21.70;86.10;;;;;;5094314;28;20392;-71
2024/03/11 11:39:14;;;;;;;1.70;0.80;;;21.40;77.20;;;;;;5093837;28;20470;-71
2024/03/11 11:41:47;;;;;;;1.17;0.60;;;20.20;79.90;;;;;;5075935;28;20415;-71
2024/03/11 11:44:27;;;;;;;1.10;0.60;;;20.80;77.10;;;;;;5094092;28;20422;-71
2024/03/11 11:47:03;;;;;;;1.03;0.70;;;21.60;76.30;;;;;;5094234;28;20399;-72
2024/03/11 11:49:34;;;;;;;0.90;0.50;;;22.50;72.30;;;;;;5094406;28;20815;-72
2024/03/11 11:52:00;;;;;;;2.60;0.70;;;23.60;67.70;;;;;;5093323;28;20544;-72
2024/03/11 11:54:28;;;;;;;1.67;0.93;;;22.60;69.70;;;;;;5094315;28;20418;-72
2024/03/11 11:57:15;;;;;;;2.97;0.90;;;23.50;66.90;;;;;;5093135;28;20431;-72
2024/03/11 11:59:52;;;;;;;1.77;0.60;;;24.10;65.60;;;;;;5094225;28;20399;-72
2024/03/11 12:02:20;;;;;;;1.30;0.73;;;24.30;62.70;;;;;;5094030;28;20443;-72
2024/03/11 12:04:51;;;;;;;1.33;0.83;;;25.00;63.30;;;;;;5093742;28;20765;-72
2024/03/11 12:07:24;;;;;;;1.30;0.70;;;25.40;59.20;;;;;;5094023;28;20451;-72
2024/03/11 12:10:01;;;;;;;1.10;0.73;;;23.20;60.90;;;;;;5093893;28;20472;-72
2024/03/11 12:12:33;;;;;;;0.97;0.60;;;21.30;64.10;;;;;;5093448;28;20429;-71
2024/03/11 12:14:59;;;;;;;1.87;0.70;;;21.60;66.70;;;;;;5075786;28;20415;-73
2024/03/11 12:17:25;;;;;;;1.30;0.70;;;22.10;65.20;;;;;;5094048;28;20439;-72
2024/03/11 12:20:20;;;;;;;1.67;0.60;;;23.20;64.30;;;;;;5094889;28;20847;-72
2024/03/11 12:22:47;;;;;;;1.90;0.70;;;22.30;62.80;;;;;;5094599;28;20767;-72
2024/03/11 12:25:13;;;;;;;1.17;0.90;;;19.40;65.90;;;;;;5095443;28;20785;-72
2024/03/11 12:27:42;;;;;;;0.80;0.53;;;19.10;71.20;;;;;;5094511;28;20431;-71
2024/03/11 12:30:16;;;;;;;1.80;0.60;;;20.50;68.30;;;;;;5094426;28;20238;-72
2024/03/11 12:32:42;;;;;;;1.73;0.70;;;22.50;62.70;;;;;;5094143;28;20395;-71
2024/03/11 12:35:12;;;;;;;2.90;0.70;;;23.90;59.50;;;;;;5093451;28;20403;-72
2024/03/11 12:37:42;;;;;;;2.03;0.97;;;24.40;56.60;;;;;;5093223;28;20806;-72
2024/03/11 12:40:18;;;;;;;2.70;0.70;;;24.10;55.60;;;;;;5093625;28;20398;-71
2024/03/11 12:42:52;;;;;;;1.13;0.77;;;24.40;55.90;;;;;;5093489;28;20861;-71
2024/03/11 12:45:37;;;;;;;1.20;0.90;;;23.40;57.60;;;;;;5093386;28;20418;-72
2024/03/11 12:48:02;;;;;;;1.00;0.60;;;24.80;57.10;;;;;;5092974;28;20931;-71
2024/03/11 12:50:29;;;;;;;0.80;0.60;;;24.00;55.90;;;;;;5092153;28;20412;-71
2024/03/11 12:53:02;;;;;;;0.93;0.50;;;24.10;55.70;;;;;;5093650;28;20199;-72
2024/03/11 12:55:29;;;;;;;1.10;0.50;;;23.70;52.70;;;;;;5093433;28;20388;-72
2024/03/11 12:58:04;;;;;;;2.23;0.70;;;22.60;54.30;;;;;;5081732;28;21067;-73